createdAt,value
2022-11-08T00:00:26.744Z,86.17
2022-11-08T00:12:27.201Z,85.38
2022-11-08T00:24:27.636Z,85.62
2022-11-08T00:36:28.075Z,84.22
2022-11-08T00:48:28.574Z,86.40
2022-11-08T01:00:28.980Z,86.19
2022-11-08T01:12:29.424Z,84.67
2022-11-08T01:24:29.909Z,85.02
2022-11-08T01:36:30.365Z,84.96
2022-11-08T01:48:30.795Z,85.78
2022-11-08T02:00:32.071Z,85.04
2022-11-08T02:12:31.754Z,86.36
2022-11-08T02:24:32.186Z,85.24
2022-11-08T02:36:32.601Z,85.47
2022-11-08T02:48:33.045Z,85.54
2022-11-08T03:00:33.517Z,85.11
2022-11-08T03:12:33.992Z,85.59
2022-11-08T03:24:34.392Z,86.33
2022-11-08T03:36:34.850Z,86.35
2022-11-08T03:48:35.341Z,85.89
2022-11-08T04:00:35.757Z,87.18
2022-11-08T04:12:36.250Z,85.43
2022-11-08T04:24:36.714Z,86.52
2022-11-08T04:36:37.140Z,86.33
2022-11-08T04:48:37.602Z,86.26
2022-11-08T05:00:38.041Z,85.83
2022-11-08T05:12:38.483Z,86.14
2022-11-08T05:24:38.976Z,85.24
2022-11-08T05:36:39.428Z,86.43
2022-11-08T05:48:39.836Z,85.23
2022-11-08T06:00:40.300Z,85.90
2022-11-08T06:12:40.782Z,85.63
2022-11-08T06:24:41.212Z,86.15
2022-11-08T06:36:41.631Z,86.28
2022-11-08T06:48:42.105Z,86.08
2022-11-08T07:00:42.521Z,86.64
2022-11-08T07:12:43.010Z,87.38
2022-11-08T07:24:43.444Z,88.48
2022-11-08T07:36:43.935Z,88.55
2022-11-08T07:48:44.365Z,90.15
2022-11-08T08:00:44.825Z,90.62
2022-11-08T08:12:45.260Z,89.75
2022-11-08T08:24:45.748Z,88.17
2022-11-08T08:36:46.192Z,85.39
2022-11-08T08:48:46.647Z,81.27
2022-11-08T09:12:47.545Z,73.47
2022-11-08T09:24:47.958Z,71.37
2022-11-08T09:36:48.471Z,67.06
2022-11-08T09:48:48.889Z,66.33
2022-11-08T10:00:49.347Z,62.71
2022-11-08T10:12:49.872Z,59.65
2022-11-08T10:24:50.274Z,55.90
2022-11-08T10:36:50.748Z,52.52
2022-11-08T10:48:51.189Z,50.25
2022-11-08T11:00:51.622Z,45.41
2022-11-08T11:12:52.102Z,43.94
2022-11-08T11:24:52.535Z,36.50
2022-11-08T11:36:52.972Z,31.45
2022-11-08T11:48:53.440Z,25.57
2022-11-08T12:00:53.929Z,23.26
2022-11-08T12:12:54.367Z,23.80
2022-11-08T12:24:54.805Z,26.84
2022-11-08T12:36:55.298Z,29.67
2022-11-08T12:48:55.771Z,41.05
2022-11-08T13:00:56.222Z,43.96
2022-11-08T13:12:56.665Z,47.68
2022-11-08T13:24:57.122Z,50.83
2022-11-08T13:36:57.597Z,55.37
2022-11-08T13:48:58.074Z,56.78
2022-11-08T14:00:58.515Z,60.55
2022-11-08T14:12:58.907Z,65.86
2022-11-08T14:24:59.407Z,63.74
2022-11-08T14:36:59.862Z,67.56
2022-11-08T14:49:00.253Z,71.72
2022-11-08T15:01:00.881Z,71.64
2022-11-08T15:13:01.214Z,74.80
2022-11-08T15:25:01.642Z,74.21
2022-11-08T15:37:02.095Z,76.58
2022-11-08T15:49:02.552Z,77.79
2022-11-08T16:01:03.083Z,78.76
2022-11-08T16:13:03.452Z,79.19
2022-11-08T16:25:03.938Z,79.59
2022-11-08T16:37:04.371Z,80.54
2022-11-08T16:49:04.845Z,79.42
2022-11-08T17:01:10.171Z,80.00
2022-11-08T17:13:05.710Z,81.62
2022-11-08T17:25:06.186Z,83.15
2022-11-08T17:37:06.689Z,82.29
2022-11-08T17:49:07.114Z,83.80
2022-11-08T18:01:07.715Z,84.25
2022-11-08T18:13:08.024Z,84.46
2022-11-08T18:25:08.460Z,82.43
2022-11-08T18:37:08.902Z,82.84
2022-11-08T18:49:09.398Z,83.22
2022-11-08T19:01:09.787Z,83.25
2022-11-08T19:13:10.292Z,83.64
2022-11-08T19:25:10.761Z,85.70
2022-11-08T19:37:11.157Z,83.91
2022-11-08T19:49:11.596Z,84.51
2022-11-08T20:01:12.265Z,85.33
2022-11-08T20:13:12.528Z,86.84
2022-11-08T20:25:12.970Z,86.09
2022-11-08T20:37:13.403Z,87.62
2022-11-08T20:49:13.905Z,85.18
2022-11-08T21:01:14.511Z,85.85
2022-11-08T21:13:14.793Z,87.03
2022-11-08T21:25:15.227Z,85.89
2022-11-08T21:37:15.711Z,86.21
2022-11-08T21:49:16.154Z,85.29
2022-11-08T22:01:16.701Z,86.10
2022-11-08T22:13:17.027Z,86.50
2022-11-08T22:25:17.521Z,85.75
2022-11-08T22:37:17.965Z,85.54
2022-11-08T22:49:18.415Z,87.75
2022-11-08T23:01:18.860Z,88.65
2022-11-08T23:13:19.683Z,86.79
2022-11-08T23:25:19.775Z,87.15
2022-11-08T23:37:20.201Z,88.37
2022-11-08T23:49:20.668Z,87.73
